• Join FlightAware (Why Join?)
  • Login
  • US Flag 
12:43AM EDT


 

Airport Tracker/Info


-or-


 

Live Flight TrackerFlight Track Log ✈ BJS542 ✈ 25-Jun-2013 ✈ KPHL - KBED

Flight Track Log - Related Links

Times and Time Zones

All times are in EDT time to prevent confusion due to time zone crossing. See the BJS542 flight status page for this flight to view local times or setup timezone preferences in your user account.

Time Position Orientation Groundspeed Altitude Reporting Facility
EDT Latitude Longitude Course Direction KTS MPH feet Rate Location/Type
05:53PM 39.8667 -75.2667 270° West 146 168 900  Level Philadelphia TRACON
05:55PM 39.8667 -75.3500 270° West 215 247 4,000 1,320 Climbing Philadelphia TRACON
05:56PM 39.9333 -75.3500 360° North 277 319 4,000  Level Philadelphia TRACON
05:57PM 40.0167 -75.3667 351° North 261 300 4,000  Level Philadelphia TRACON
05:58PM 40.0833 -75.3833 349° North 258 297 4,000  Level Philadelphia TRACON
05:59PM 40.1500 -75.3833 360° North 254 292 4,000  Level Philadelphia TRACON
06:00PM 40.2333 -75.4000 351° North 264 304 4,000 240 Level Philadelphia TRACON
06:02PM 40.4288 -75.3850 North  Level FlightAware Approximate
06:09PM 41.2369 -75.4658 357° North  Level FlightAware Approximate
06:10PM 41.3520 -75.4667 North  Level FlightAware Approximate
06:11PM 41.4679 -75.4628 67° East  Level FlightAware Approximate
06:12PM 41.5138 -75.3178 67° East  Level FlightAware Approximate
06:13PM 41.5596 -75.1727 67° East  Level FlightAware Approximate
06:14PM 41.6051 -75.0274 67° East  Level FlightAware Approximate
06:15PM 41.6504 -74.8819 70° East  Level FlightAware Approximate
06:16PM 41.6910 -74.7337 70° East  Level FlightAware Approximate
06:17PM 41.7314 -74.5854 70° East  Level FlightAware Approximate
06:18PM 41.7737 -74.4380 68° East  Level FlightAware Approximate
06:18PM 41.4939 -75.4278 100° East 306 352 9,000  Level Boston Center
06:19PM 41.8177 -74.2914 68° East  Level FlightAware Approximate
06:19PM 41.5281 -75.3158 68° East 317 365 9,000  Level Boston Center
06:20PM 41.8419 -74.1430 105° East  Level FlightAware Approximate
06:20PM 41.5622 -75.2036 68° East 317 365 10,000  Level Boston Center
06:21PM 41.8186 -73.9881 100° East  Level FlightAware Approximate
06:21PM 41.6050 -75.0611 68° East 351 404 10,000  Level Boston Center
06:22PM 41.7979 -73.8324 100° East  Level FlightAware Approximate
06:22PM 41.6411 -74.9431 68° East 368 423 10,000  Level Boston Center
06:23PM 41.7771 -73.6768 100° East  Level FlightAware Approximate
06:23PM 41.6881 -74.8003 66° East 373 429 10,800  Level Boston Center
06:24PM 41.7258 -74.6819 67° East 378 435 13,000 1,560 Climbing Boston Center
06:25PM 41.7767 -74.5364 65° Northeast 378 435 14,000 1,980 Climbing Boston Center
06:26PM 41.8119 -74.4233 67° East 380 437 17,000 1,500 Climbing Boston Center
06:27PM 41.8603 -74.2714 67° East 387 445 17,000  Level Boston Center
06:28PM 41.8997 -74.1472 67° East 397 457 17,000  Level Boston Center
06:29PM 41.9456 -74.0031 67° East 404 465 17,000  Level Boston Center
06:30PM 41.9936 -73.8481 67° East 404 465 17,000  Level Boston Center
06:31PM 42.0411 -73.7064 66° East 409 471 17,000  Level Boston Center
06:32PM 42.0864 -73.5619 67° East 414 476 17,100  Climbing Boston Center
06:33PM 42.1314 -73.4172 67° East 414 476 17,000 -60 Descending Boston Center
06:34PM 42.1722 -73.2889 67° East 414 476 17,000  Level Boston Center
06:35PM 42.2189 -73.1381 67° East 406 467 17,000  Level Boston Center
06:36PM 42.2594 -73.0122 66° East 399 459 17,000  Level Boston Center
06:37PM 42.3039 -72.8583 69° East 392 451 17,100  Climbing Boston Center
06:38PM 42.3375 -72.7519 67° East 392 451 17,000 -60 Descending Boston Center
06:39PM 42.3836 -72.6003 68° East 387 445 17,000  Level Boston Center